Time;durP1;ratioP1;P1;durP2;ratioP2;P2;SDS_P1;SDS_P2;PMS_P1;PMS_P2;Temp;Humidity;BMP_temperature;BMP_pressure;BME280_temperature;BME280_humidity;BME280_pressure;Samples;Min_cycle;Max_cycle;Signal;HPM_P1;HPM_P2
2021/12/05 00:23:39;;;;;;;6.63;3.33;;;5.70;99.90;;;;;;5079757;28;20516;-84
2021/12/05 00:26:06;;;;;;;12.40;3.13;;;5.50;99.90;;;;;;5081034;28;20429;-85
2021/12/05 00:31:32;;;;;;;8.77;4.03;;;5.60;99.90;;;;;;5065546;28;20442;-87
2021/12/05 01:06:13;;;;;;;8.40;3.33;;;5.80;99.90;;;;;;5078061;28;20466;-85
2021/12/05 01:15:53;;;;;;;5.33;3.00;;;5.50;99.90;;;;;;5054351;28;20518;-85
2021/12/05 01:18:20;;;;;;;6.53;2.43;;;5.40;99.90;;;;;;5047593;28;20435;-85
2021/12/05 01:20:56;;;;;;;6.53;3.37;;;5.60;99.90;;;;;;5051636;28;20467;-83
2021/12/05 01:58:04;;;;;;;7.13;2.27;;;5.40;99.90;;;;;;5061941;28;20438;-85
2021/12/05 02:36:47;;;;;;;8.23;2.67;;;5.60;99.90;;;;;;5048194;28;21017;-83
2021/12/05 02:42:07;;;;;;;6.13;2.93;;;5.70;99.90;;;;;;5045378;28;20494;-83
2021/12/05 02:44:33;;;;;;;15.10;2.90;;;5.50;99.90;;;;;;5059620;28;20566;-85
2021/12/05 02:47:14;;;;;;;7.83;3.00;;;5.60;99.90;;;;;;5048057;28;20451;-84
2021/12/05 02:49:43;;;;;;;9.10;2.97;;;5.70;99.90;;;;;;5059006;28;20431;-84
2021/12/05 02:52:17;;;;;;;8.50;2.60;;;5.70;99.90;;;;;;5058312;28;20419;-83
2021/12/05 02:54:49;;;;;;;6.53;2.70;;;5.70;99.90;;;;;;5058738;28;20414;-82
2021/12/05 02:57:18;;;;;;;12.90;3.80;;;5.80;99.90;;;;;;5041293;28;20538;-84
2021/12/05 02:59:50;;;;;;;7.67;2.60;;;5.70;99.90;;;;;;5057582;28;20424;-83
2021/12/05 03:02:18;;;;;;;9.63;2.83;;;5.60;99.90;;;;;;5059897;28;20415;-84
2021/12/05 03:04:47;;;;;;;4.83;2.60;;;5.80;99.90;;;;;;5058901;28;20501;-84
2021/12/05 03:07:15;;;;;;;8.97;3.20;;;5.60;99.90;;;;;;5056234;28;20539;-84
2021/12/05 03:09:42;;;;;;;13.80;3.27;;;5.60;99.90;;;;;;5055383;28;20421;-83
2021/12/05 03:12:16;;;;;;;6.47;2.93;;;5.50;99.90;;;;;;5058272;28;20439;-85
2021/12/05 03:14:43;;;;;;;8.40;2.70;;;5.60;99.90;;;;;;5075915;28;20424;-83
2021/12/05 03:17:09;;;;;;;5.10;3.07;;;5.70;99.90;;;;;;5055244;28;20429;-84
2021/12/05 03:19:34;;;;;;;6.03;3.53;;;5.70;99.90;;;;;;5072829;28;20427;-85
2021/12/05 03:22:00;;;;;;;8.53;3.10;;;5.50;99.90;;;;;;5041074;28;20947;-82
2021/12/05 03:24:26;;;;;;;5.97;2.83;;;5.40;99.90;;;;;;5042019;28;20217;-83
2021/12/05 03:26:53;;;;;;;6.03;2.87;;;5.70;99.90;;;;;;5075468;28;20225;-84
2021/12/05 03:29:21;;;;;;;9.73;3.07;;;5.40;99.90;;;;;;5075999;28;20797;-82
2021/12/05 03:31:48;;;;;;;9.93;2.57;;;5.60;99.90;;;;;;5036792;28;20543;-82
2021/12/05 03:34:17;;;;;;;4.73;2.60;;;5.80;99.90;;;;;;5068933;28;20824;-85
2021/12/05 03:36:46;;;;;;;5.50;2.97;;;5.80;99.90;;;;;;5042021;28;20519;-83
2021/12/05 03:39:13;;;;;;;6.63;2.33;;;5.50;99.90;;;;;;5029617;28;20440;-82
2021/12/05 03:41:41;;;;;;;4.90;2.37;;;5.40;99.90;;;;;;5057030;28;20866;-85
2021/12/05 03:44:09;;;;;;;8.10;2.30;;;5.70;99.90;;;;;;5041658;28;20490;-84
2021/12/05 03:46:35;;;;;;;7.70;2.60;;;5.50;99.90;;;;;;5051104;28;20501;-83
2021/12/05 03:49:08;;;;;;;8.03;2.90;;;5.70;99.90;;;;;;5056473;28;20805;-85
2021/12/05 03:51:38;;;;;;;6.60;2.70;;;5.70;99.90;;;;;;5042436;28;20415;-84
2021/12/05 03:54:06;;;;;;;6.87;2.30;;;5.70;99.90;;;;;;5055958;28;20430;-83
2021/12/05 03:56:33;;;;;;;6.50;2.67;;;5.80;99.90;;;;;;5030435;28;20456;-84
2021/12/05 03:58:59;;;;;;;3.23;2.20;;;5.70;99.90;;;;;;5034818;28;20454;-84
2021/12/05 04:01:25;;;;;;;9.17;2.50;;;5.60;99.90;;;;;;5058211;28;20526;-84
2021/12/05 04:03:53;;;;;;;5.67;3.37;;;5.80;99.90;;;;;;5058430;28;20556;-84
2021/12/05 04:06:21;;;;;;;6.40;2.40;;;5.80;99.90;;;;;;5025833;28;20458;-83
2021/12/05 04:08:48;;;;;;;11.17;2.50;;;5.60;99.90;;;;;;5071545;28;20437;-85
2021/12/05 04:11:24;;;;;;;8.63;3.10;;;5.90;99.90;;;;;;5065567;28;20438;-83
2021/12/05 04:13:50;;;;;;;6.70;3.37;;;5.60;99.90;;;;;;5039493;28;20416;-85
2021/12/05 04:16:16;;;;;;;6.40;2.80;;;5.60;99.90;;;;;;5057599;28;20976;-83
2021/12/05 04:18:45;;;;;;;10.20;2.40;;;5.70;99.90;;;;;;5075334;28;20197;-82
2021/12/05 04:21:12;;;;;;;7.70;2.93;;;5.80;99.90;;;;;;5041636;28;20420;-82
2021/12/05 04:23:38;;;;;;;6.70;1.80;;;5.90;99.90;;;;;;5061909;28;20453;-85
2021/12/05 04:26:04;;;;;;;9.10;2.97;;;5.90;99.90;;;;;;5033263;28;20425;-84
2021/12/05 04:28:30;;;;;;;6.20;1.83;;;5.70;99.90;;;;;;5061800;28;20177;-85
2021/12/05 04:30:57;;;;;;;4.50;2.33;;;5.80;99.90;;;;;;5061585;28;20534;-84
2021/12/05 04:33:23;;;;;;;4.53;1.63;;;5.70;99.90;;;;;;5028699;28;20419;-84
2021/12/05 04:35:49;;;;;;;7.27;2.40;;;5.70;99.90;;;;;;5061402;28;20530;-84
2021/12/05 04:38:15;;;;;;;8.77;2.20;;;5.70;99.90;;;;;;5031302;28;20490;-85
2021/12/05 04:40:41;;;;;;;6.60;1.80;;;5.90;99.90;;;;;;5065805;28;20229;-84
2021/12/05 04:43:08;;;;;;;5.07;2.20;;;5.80;99.90;;;;;;5044302;28;20447;-85
2021/12/05 04:45:35;;;;;;;6.63;1.80;;;5.90;99.90;;;;;;5041509;28;20463;-84
2021/12/05 04:48:04;;;;;;;5.90;2.03;;;5.70;99.90;;;;;;5056933;28;20462;-85
2021/12/05 04:50:31;;;;;;;6.20;1.80;;;5.70;99.90;;;;;;5045111;28;20523;-85
2021/12/05 04:52:57;;;;;;;5.63;2.00;;;5.70;99.90;;;;;;5061506;28;20956;-84
2021/12/05 04:55:24;;;;;;;4.57;1.60;;;5.70;99.90;;;;;;5061584;28;20522;-85
2021/12/05 04:57:51;;;;;;;5.67;1.30;;;5.60;99.90;;;;;;5044081;28;20455;-83
2021/12/05 05:00:30;;;;;;;5.27;2.37;;;5.90;99.90;;;;;;5061370;28;21013;-83
2021/12/05 05:02:57;;;;;;;3.93;1.60;;;5.80;99.90;;;;;;5052172;28;20436;-84
2021/12/05 05:05:27;;;;;;;5.83;1.90;;;5.60;99.90;;;;;;5055580;28;20470;-85
2021/12/05 05:07:53;;;;;;;5.00;1.70;;;5.80;99.90;;;;;;5045175;28;20443;-83
2021/12/05 05:10:25;;;;;;;5.60;1.60;;;5.80;99.90;;;;;;5061004;28;20452;-85
2021/12/05 05:12:52;;;;;;;8.30;1.80;;;5.60;99.90;;;;;;5057574;28;20454;-85
2021/12/05 05:15:22;;;;;;;3.70;1.47;;;5.50;99.90;;;;;;5058642;28;20423;-83
2021/12/05 05:17:51;;;;;;;9.33;2.00;;;5.80;99.90;;;;;;5050049;28;21008;-83
2021/12/05 05:20:33;;;;;;;4.53;1.57;;;5.80;99.90;;;;;;5059728;28;20427;-83
2021/12/05 05:23:17;;;;;;;5.00;1.60;;;5.70;99.90;;;;;;5046402;28;20446;-85
2021/12/05 05:39:45;;;;;;;5.63;1.50;;;5.60;99.90;;;;;;5078772;28;20426;-85
2021/12/05 05:47:38;;;;;;;4.47;1.53;;;5.70;99.90;;;;;;5061569;28;20845;-85
2021/12/05 05:50:05;;;;;;;6.30;2.33;;;5.70;99.90;;;;;;5044119;28;20428;-83
2021/12/05 05:52:34;;;;;;;3.03;1.50;;;5.60;99.90;;;;;;5076869;28;20931;-85
2021/12/05 05:55:00;;;;;;;9.33;1.83;;;5.80;99.90;;;;;;5077409;28;20533;-84
2021/12/05 05:57:32;;;;;;;8.20;1.57;;;5.70;99.90;;;;;;5075379;28;20463;-84
2021/12/05 06:00:14;;;;;;;5.67;1.67;;;5.80;99.90;;;;;;5052589;28;20427;-83
2021/12/05 06:05:27;;;;;;;7.07;1.33;;;5.60;99.90;;;;;;5050716;28;20494;-86
2021/12/05 06:07:53;;;;;;;3.00;1.80;;;5.80;99.90;;;;;;5076478;28;20451;-84
2021/12/05 06:10:24;;;;;;;4.77;1.70;;;5.60;99.90;;;;;;5059999;28;20548;-83
2021/12/05 06:12:51;;;;;;;3.60;1.87;;;5.40;99.90;;;;;;5026386;28;20436;-84
2021/12/05 06:15:19;;;;;;;3.37;1.87;;;5.60;99.90;;;;;;5076721;28;20430;-83
2021/12/05 06:17:45;;;;;;;5.27;1.87;;;5.60;99.90;;;;;;5070348;28;20465;-83
2021/12/05 06:20:16;;;;;;;2.80;1.50;;;5.80;99.90;;;;;;5055333;28;20428;-83
2021/12/05 06:22:46;;;;;;;3.00;1.57;;;5.80;99.90;;;;;;5056745;28;20503;-85
2021/12/05 06:25:21;;;;;;;2.67;1.33;;;5.50;99.90;;;;;;5045369;28;20493;-83
2021/12/05 06:27:49;;;;;;;7.73;2.37;;;5.50;99.90;;;;;;5050666;28;20479;-85
2021/12/05 06:30:22;;;;;;;4.30;1.70;;;5.50;99.90;;;;;;5030959;28;20428;-85
2021/12/05 06:48:47;;;;;;;2.70;1.47;;;5.60;99.90;;;;;;5076376;28;20449;-85
2021/12/05 06:51:15;;;;;;;6.90;1.43;;;5.70;99.90;;;;;;5042361;28;20836;-83
2021/12/05 06:53:40;;;;;;;2.57;1.10;;;5.50;99.90;;;;;;5035485;28;20431;-83
2021/12/05 06:56:07;;;;;;;9.27;1.77;;;5.70;99.90;;;;;;5058808;28;20438;-85
2021/12/05 06:58:34;;;;;;;6.93;1.20;;;5.60;99.90;;;;;;5058692;28;20203;-83
2021/12/05 07:01:01;;;;;;;3.60;2.30;;;5.80;99.90;;;;;;5038698;28;20519;-83
2021/12/05 07:03:27;;;;;;;3.03;1.23;;;5.50;99.90;;;;;;5045802;28;20424;-84
2021/12/05 07:06:03;;;;;;;4.50;1.63;;;5.70;99.90;;;;;;5025401;28;20478;-85
2021/12/05 07:08:33;;;;;;;3.17;1.30;;;5.60;99.90;;;;;;5042026;28;20165;-85
2021/12/05 07:11:06;;;;;;;5.27;1.50;;;5.70;99.90;;;;;;5076141;28;20433;-84
2021/12/05 07:16:05;;;;;;;2.90;1.40;;;5.60;99.90;;;;;;5077295;28;20465;-84
2021/12/05 07:26:50;;;;;;;2.70;1.60;;;5.50;99.90;;;;;;5074711;28;20432;-85
2021/12/05 07:40:28;;;;;;;4.33;2.07;;;5.60;99.90;;;;;;5056002;28;20432;-84
2021/12/05 07:43:06;;;;;;;4.50;1.20;;;6.00;99.90;;;;;;5026208;28;20458;-85
2021/12/05 07:45:43;;;;;;;6.67;1.63;;;5.80;99.90;;;;;;5059596;28;20478;-83
2021/12/05 07:48:18;;;;;;;3.80;1.60;;;5.70;99.90;;;;;;5035604;28;20440;-84
2021/12/05 07:53:48;;;;;;;3.03;1.40;;;5.80;99.90;;;;;;5055275;28;20944;-83
2021/12/05 07:56:57;;;;;;;1.67;1.33;;;5.80;99.90;;;;;;5039123;28;20452;-83
2021/12/05 08:00:22;;;;;;;9.13;1.77;;;5.80;99.90;;;;;;5057779;28;20457;-84
2021/12/05 08:15:59;;;;;;;2.83;1.40;;;5.90;99.90;;;;;;5034364;28;20428;-85
2021/12/05 08:18:27;;;;;;;5.30;1.63;;;5.80;99.90;;;;;;5027724;28;20515;-85
2021/12/05 08:20:53;;;;;;;1.93;1.30;;;5.80;99.90;;;;;;5045464;28;20420;-85
2021/12/05 08:23:20;;;;;;;3.60;1.50;;;5.60;99.90;;;;;;5057795;28;20423;-85
2021/12/05 08:25:53;;;;;;;2.97;2.63;;;5.80;99.90;;;;;;5037105;28;20499;-85
2021/12/05 08:28:35;;;;;;;2.40;1.47;;;5.80;99.90;;;;;;5033926;28;20436;-83
2021/12/05 08:31:14;;;;;;;3.90;1.90;;;5.90;99.90;;;;;;5054222;28;20458;-84
2021/12/05 09:25:44;;;;;;;1.70;1.13;;;6.00;99.90;;;;;;5067566;28;20937;-85
2021/12/05 09:53:28;;;;;;;4.83;1.80;;;5.90;99.90;;;;;;5077066;28;20427;-83
2021/12/05 10:14:51;;;;;;;2.47;1.60;;;6.30;99.90;;;;;;5058790;28;20434;-85
2021/12/05 10:34:02;;;;;;;3.03;1.57;;;6.10;99.90;;;;;;5050561;28;21023;-86
2021/12/05 10:36:28;;;;;;;2.80;1.40;;;6.20;99.90;;;;;;5075822;28;20446;-84
2021/12/05 10:39:00;;;;;;;2.03;1.40;;;6.20;99.90;;;;;;5041768;28;20450;-84
2021/12/05 10:44:01;;;;;;;2.90;1.63;;;6.10;99.90;;;;;;5065813;28;20435;-84
2021/12/05 10:46:29;;;;;;;1.70;1.60;;;6.20;99.90;;;;;;5064345;28;20507;-84
2021/12/05 10:49:14;;;;;;;2.40;1.40;;;6.50;99.90;;;;;;5039250;28;20419;-83
2021/12/05 10:51:45;;;;;;;1.53;1.23;;;6.30;99.90;;;;;;5057776;28;20481;-85
2021/12/05 10:54:18;;;;;;;2.90;1.53;;;6.40;99.90;;;;;;5041366;28;20498;-84
2021/12/05 10:56:51;;;;;;;1.40;1.30;;;6.40;99.90;;;;;;5051719;28;20443;-85
2021/12/05 10:59:21;;;;;;;1.33;1.20;;;6.30;99.90;;;;;;5035581;28;20446;-84
2021/12/05 11:01:59;;;;;;;2.20;1.20;;;6.30;99.90;;;;;;5057195;28;20411;-84
2021/12/05 11:04:41;;;;;;;4.07;1.60;;;6.50;99.90;;;;;;5072627;28;20459;-84
2021/12/05 11:07:21;;;;;;;2.53;1.37;;;6.40;99.90;;;;;;5059486;28;20865;-84
2021/12/05 11:09:49;;;;;;;1.67;1.57;;;6.40;99.90;;;;;;5059332;28;20458;-86
2021/12/05 11:12:27;;;;;;;2.33;1.47;;;6.40;99.90;;;;;;5057635;28;20913;-86
2021/12/05 11:15:03;;;;;;;2.80;1.53;;;6.40;99.90;;;;;;5042256;28;20476;-86
2021/12/05 11:17:31;;;;;;;2.40;1.40;;;6.40;99.90;;;;;;5050633;28;21203;-85
2021/12/05 11:19:59;;;;;;;2.10;1.63;;;6.40;99.90;;;;;;5024936;28;20430;-84
2021/12/05 11:22:38;;;;;;;1.43;1.33;;;6.50;99.90;;;;;;5059584;28;20433;-84
2021/12/05 11:25:12;;;;;;;2.17;1.53;;;6.50;99.90;;;;;;5054407;28;20463;-81
2021/12/05 11:27:50;;;;;;;2.93;1.90;;;6.50;99.90;;;;;;5039772;28;20436;-84
2021/12/05 11:30:16;;;;;;;3.13;1.77;;;6.40;99.90;;;;;;5065427;28;20435;-82
2021/12/05 11:33:28;;;;;;;2.77;1.43;;;6.40;99.90;;;;;;5068370;28;20505;-79
2021/12/05 11:35:59;;;;;;;1.77;1.50;;;6.50;99.90;;;;;;5015793;28;20433;-82
2021/12/05 11:38:28;;;;;;;2.57;1.50;;;6.60;99.90;;;;;;5041806;28;20438;-83
2021/12/05 11:40:58;;;;;;;2.10;1.70;;;6.50;99.90;;;;;;5056190;28;20417;-85
2021/12/05 11:43:30;;;;;;;4.77;1.43;;;6.50;99.90;;;;;;5069527;28;20552;-85
2021/12/05 11:46:09;;;;;;;2.73;1.30;;;6.50;99.90;;;;;;5060370;28;20459;-83
2021/12/05 11:48:48;;;;;;;1.80;1.50;;;6.70;99.90;;;;;;5069095;28;20469;-83
2021/12/05 11:51:25;;;;;;;1.57;1.47;;;6.60;99.90;;;;;;5051481;28;20415;-83
2021/12/05 11:54:17;;;;;;;1.87;1.37;;;6.50;99.90;;;;;;5067312;28;20438;-83
2021/12/05 11:56:49;;;;;;;4.40;1.50;;;6.50;99.90;;;;;;5066961;28;20450;-84
2021/12/05 11:59:30;;;;;;;2.10;1.30;;;6.40;99.90;;;;;;5069264;28;20421;-84
2021/12/05 12:02:01;;;;;;;1.80;1.43;;;6.30;99.90;;;;;;5074967;28;20441;-83
2021/12/05 12:04:58;;;;;;;2.47;1.70;;;6.50;99.90;;;;;;5058146;28;20497;-85
2021/12/05 12:07:44;;;;;;;4.63;1.73;;;6.50;99.90;;;;;;5044064;28;20881;-82
2021/12/05 12:10:26;;;;;;;2.37;1.40;;;6.60;99.90;;;;;;5053612;28;20443;-80
2021/12/05 12:12:56;;;;;;;2.53;1.40;;;6.50;99.90;;;;;;5036080;28;20440;-84
2021/12/05 12:15:23;;;;;;;3.40;1.63;;;6.60;99.90;;;;;;5030520;28;20992;-82
2021/12/05 12:17:51;;;;;;;1.87;1.40;;;6.40;99.90;;;;;;5044079;28;20443;-84
2021/12/05 12:20:22;;;;;;;3.33;1.83;;;6.60;99.90;;;;;;5069250;28;20819;-85
2021/12/05 12:22:53;;;;;;;4.23;1.53;;;6.50;99.90;;;;;;5029936;28;20446;-80
2021/12/05 12:25:23;;;;;;;4.50;1.47;;;6.50;99.90;;;;;;5068576;28;20470;-83
2021/12/05 12:27:49;;;;;;;2.27;1.43;;;6.60;99.90;;;;;;5049665;28;20435;-84
2021/12/05 12:30:24;;;;;;;2.30;1.50;;;6.70;99.90;;;;;;5045620;28;20438;-82
2021/12/05 12:32:53;;;;;;;1.53;1.23;;;6.50;99.90;;;;;;5046232;28;20428;-83
2021/12/05 12:35:25;;;;;;;1.60;1.30;;;6.70;99.90;;;;;;5047144;28;20507;-82
2021/12/05 12:38:14;;;;;;;2.80;1.60;;;6.70;99.90;;;;;;5051596;28;20443;-83
2021/12/05 12:40:47;;;;;;;1.70;1.23;;;6.70;99.90;;;;;;5036671;28;20522;-84
2021/12/05 12:43:46;;;;;;;3.93;1.60;;;6.90;99.90;;;;;;5061494;28;20422;-82
2021/12/05 12:46:34;;;;;;;1.40;1.30;;;6.70;99.90;;;;;;5053215;28;20479;-83
2021/12/05 12:49:23;;;;;;;1.57;1.40;;;6.90;99.90;;;;;;5070092;28;20440;-81
2021/12/05 12:51:59;;;;;;;3.20;1.30;;;7.00;99.90;;;;;;5052451;28;20506;-84
2021/12/05 12:54:28;;;;;;;2.23;1.30;;;6.80;99.90;;;;;;5045233;28;20434;-83
2021/12/05 12:57:02;;;;;;;2.37;1.20;;;6.60;99.90;;;;;;5074872;28;20444;-81
2021/12/05 12:59:31;;;;;;;1.53;1.20;;;7.00;99.90;;;;;;5057005;28;21129;-82
2021/12/05 13:05:00;;;;;;;1.40;1.10;;;6.80;99.90;;;;;;5048807;28;20466;-81
2021/12/05 13:10:11;;;;;;;3.77;1.40;;;6.90;99.90;;;;;;5073141;28;20431;-84
2021/12/05 13:12:49;;;;;;;3.47;1.80;;;7.00;99.90;;;;;;5052065;28;20477;-82
2021/12/05 13:15:27;;;;;;;1.90;1.60;;;7.00;99.90;;;;;;5064859;28;20478;-84
2021/12/05 13:18:15;;;;;;;2.40;1.20;;;7.00;99.90;;;;;;5051164;28;20479;-84
2021/12/05 13:20:41;;;;;;;1.57;1.10;;;6.90;99.90;;;;;;5039404;28;20447;-84
2021/12/05 13:23:14;;;;;;;3.60;1.30;;;7.10;99.90;;;;;;5069425;28;20428;-84
2021/12/05 13:26:14;;;;;;;1.20;1.00;;;7.10;99.90;;;;;;5027481;28;20580;-84
2021/12/05 13:28:43;;;;;;;2.90;1.37;;;7.10;99.90;;;;;;5036890;28;20436;-84
2021/12/05 13:31:27;;;;;;;2.03;1.07;;;7.00;99.90;;;;;;5043522;28;20451;-83
2021/12/05 13:34:16;;;;;;;2.60;1.10;;;6.90;99.90;;;;;;5057435;28;20437;-83
2021/12/05 13:36:45;;;;;;;2.10;1.07;;;6.80;99.90;;;;;;5065976;28;20854;-84
2021/12/05 13:39:46;;;;;;;1.80;1.00;;;6.90;99.90;;;;;;5048176;28;20435;-84
2021/12/05 13:42:24;;;;;;;2.60;1.13;;;6.90;99.90;;;;;;5056256;28;20441;-83
2021/12/05 13:44:58;;;;;;;0.87;0.87;;;6.80;99.90;;;;;;5040884;28;20470;-83
2021/12/05 13:47:29;;;;;;;2.47;1.00;;;7.00;99.90;;;;;;5054760;28;20442;-84
2021/12/05 13:50:18;;;;;;;1.57;1.00;;;7.10;99.90;;;;;;5034504;28;20420;-85
2021/12/05 13:52:56;;;;;;;2.67;1.00;;;7.10;99.90;;;;;;5035850;28;20423;-82
2021/12/05 13:55:43;;;;;;;1.53;1.10;;;6.80;99.90;;;;;;5037451;28;20426;-85
2021/12/05 13:58:45;;;;;;;2.00;1.20;;;6.90;99.90;;;;;;5064839;28;20801;-85
2021/12/05 14:01:29;;;;;;;1.13;0.80;;;6.80;99.90;;;;;;5061541;28;20965;-82
2021/12/05 14:03:57;;;;;;;4.10;1.10;;;6.70;99.90;;;;;;5073930;28;20435;-84
2021/12/05 14:06:29;;;;;;;1.07;0.87;;;6.80;99.90;;;;;;5074371;28;20463;-84
2021/12/05 14:09:00;;;;;;;2.93;0.90;;;6.90;99.90;;;;;;5059357;28;20454;-85
2021/12/05 14:11:27;;;;;;;2.00;1.43;;;6.70;99.90;;;;;;5040774;28;20423;-83
2021/12/05 14:13:53;;;;;;;2.50;1.00;;;6.70;99.90;;;;;;5052075;28;20409;-85
2021/12/05 14:16:28;;;;;;;1.00;0.70;;;6.90;99.90;;;;;;5053178;28;20455;-84
2021/12/05 14:18:54;;;;;;;1.43;1.10;;;6.70;99.90;;;;;;5037737;28;21129;-84
2021/12/05 14:21:23;;;;;;;3.53;0.93;;;6.90;99.90;;;;;;5055901;28;20428;-85
2021/12/05 14:23:54;;;;;;;1.83;0.90;;;6.70;99.90;;;;;;5033177;28;20416;-84
2021/12/05 14:26:25;;;;;;;2.40;1.00;;;6.70;99.90;;;;;;5030985;28;21050;-84
2021/12/05 14:29:03;;;;;;;1.53;0.97;;;6.70;99.90;;;;;;5025264;28;20481;-85
2021/12/05 14:31:33;;;;;;;1.00;0.90;;;6.70;99.90;;;;;;5036277;28;20460;-84
2021/12/05 14:33:59;;;;;;;2.20;0.93;;;6.80;99.90;;;;;;5040716;28;20419;-84
2021/12/05 14:36:32;;;;;;;2.00;0.90;;;6.70;99.90;;;;;;5073265;28;20441;-85
2021/12/05 14:39:21;;;;;;;1.33;0.97;;;6.70;99.90;;;;;;5043910;28;20182;-84
2021/12/05 14:41:50;;;;;;;1.23;0.70;;;6.80;99.90;;;;;;5049312;28;20776;-84
2021/12/05 14:44:18;;;;;;;2.00;0.93;;;6.60;99.90;;;;;;5057656;28;21139;-83
2021/12/05 14:46:50;;;;;;;2.20;0.93;;;6.80;99.90;;;;;;5074135;28;20568;-85
2021/12/05 14:49:17;;;;;;;2.30;1.13;;;6.80;99.90;;;;;;5069763;28;20788;-84
2021/12/05 14:51:45;;;;;;;2.10;1.43;;;6.70;99.90;;;;;;5045103;28;20861;-85
2021/12/05 14:54:18;;;;;;;1.50;1.17;;;6.50;99.90;;;;;;5053745;28;20438;-84
2021/12/05 14:56:43;;;;;;;3.20;1.10;;;6.50;99.90;;;;;;5036992;28;20479;-85
2021/12/05 14:59:12;;;;;;;1.30;1.03;;;6.50;99.90;;;;;;5020744;28;21225;-84
2021/12/05 15:01:42;;;;;;;1.73;1.17;;;6.50;99.90;;;;;;5069521;28;20510;-84
2021/12/05 15:04:10;;;;;;;1.40;0.93;;;6.70;99.90;;;;;;5040254;28;20793;-85
2021/12/05 15:06:41;;;;;;;3.17;1.40;;;6.80;99.90;;;;;;5073148;28;20432;-84
2021/12/05 15:09:37;;;;;;;1.53;1.03;;;6.60;99.90;;;;;;5042701;28;20526;-82
2021/12/05 15:12:10;;;;;;;1.17;1.07;;;6.60;99.90;;;;;;5093504;28;20431;-84
2021/12/05 15:14:40;;;;;;;1.20;1.10;;;6.60;99.90;;;;;;5048640;28;20878;-85
2021/12/05 15:17:17;;;;;;;1.57;1.37;;;6.60;99.90;;;;;;5072165;28;20455;-84
2021/12/05 15:19:51;;;;;;;2.27;1.27;;;6.80;99.90;;;;;;5056795;28;20420;-84
2021/12/05 15:22:18;;;;;;;0.90;0.90;;;6.60;99.90;;;;;;5037884;28;20465;-84
2021/12/05 15:25:02;;;;;;;2.10;1.10;;;6.90;99.90;;;;;;5050320;28;20466;-82
2021/12/05 15:27:31;;;;;;;1.00;0.90;;;6.70;99.90;;;;;;5039182;28;20431;-84
2021/12/05 15:30:07;;;;;;;1.90;1.07;;;6.90;99.90;;;;;;5055501;28;20416;-84
2021/12/05 15:32:33;;;;;;;1.23;1.00;;;6.90;99.90;;;;;;5070914;28;20526;-83
2021/12/05 15:35:02;;;;;;;2.13;1.20;;;7.30;99.90;;;;;;5049629;28;20431;-82
2021/12/05 15:37:28;;;;;;;1.50;1.00;;;7.30;99.90;;;;;;5036619;28;20439;-83
2021/12/05 15:39:56;;;;;;;2.30;0.90;;;7.80;99.90;;;;;;5043541;28;20420;-84
2021/12/05 15:42:29;;;;;;;1.57;0.90;;;8.10;99.90;;;;;;5042380;28;20462;-82
2021/12/05 15:44:57;;;;;;;2.70;1.00;;;8.60;99.90;;;;;;5054489;28;20456;-81
2021/12/05 15:47:28;;;;;;;1.90;1.10;;;9.10;99.90;;;;;;5049096;28;20452;-83
2021/12/05 15:49:57;;;;;;;1.83;1.07;;;9.90;99.90;;;;;;5073987;28;21002;-83
2021/12/05 15:52:34;;;;;;;2.20;1.20;;;10.00;99.90;;;;;;5055567;28;20893;-83
2021/12/05 15:55:04;;;;;;;3.30;1.40;;;10.40;99.90;;;;;;5035735;28;20463;-83
2021/12/05 15:57:38;;;;;;;2.20;1.50;;;10.80;99.90;;;;;;5051110;28;20849;-84
2021/12/05 16:00:35;;;;;;;1.67;1.20;;;11.40;99.90;;;;;;5031768;28;20424;-83
2021/12/05 16:03:04;;;;;;;1.47;1.30;;;11.80;99.90;;;;;;5065947;28;20431;-82
2021/12/05 16:05:31;;;;;;;1.57;1.00;;;12.20;99.90;;;;;;5052173;28;20501;-83
2021/12/05 16:08:15;;;;;;;2.10;1.10;;;12.70;99.90;;;;;;5060053;28;20465;-84
2021/12/05 16:10:44;;;;;;;2.30;0.90;;;13.00;99.30;;;;;;5078306;28;20436;-83
2021/12/05 16:13:12;;;;;;;2.20;1.30;;;13.00;98.80;;;;;;5041264;28;20807;-84
2021/12/05 16:15:39;;;;;;;2.20;1.30;;;13.10;98.80;;;;;;5074455;28;20430;-83
2021/12/05 16:18:06;;;;;;;2.07;1.40;;;13.20;98.10;;;;;;5044037;28;20450;-84
2021/12/05 16:20:36;;;;;;;3.90;1.50;;;13.40;99.20;;;;;;5078561;28;20415;-84
2021/12/05 16:23:15;;;;;;;1.93;1.73;;;13.50;98.90;;;;;;5043618;28;20500;-84
2021/12/05 16:25:46;;;;;;;2.37;2.10;;;13.60;99.10;;;;;;5056083;28;20491;-84
2021/12/05 16:28:13;;;;;;;2.10;1.90;;;13.70;99.40;;;;;;5029434;28;20440;-83
2021/12/05 16:30:43;;;;;;;3.80;1.77;;;13.90;99.10;;;;;;5061905;28;20462;-84
2021/12/05 16:33:12;;;;;;;2.20;1.97;;;14.00;98.30;;;;;;5062590;28;20435;-83
2021/12/05 16:35:43;;;;;;;2.87;2.30;;;14.10;97.60;;;;;;5034977;28;20407;-83
2021/12/05 16:38:22;;;;;;;3.03;1.90;;;14.30;97.90;;;;;;5045213;28;20850;-82
2021/12/05 16:40:59;;;;;;;2.00;1.87;;;14.50;97.50;;;;;;5058510;28;20423;-83
2021/12/05 16:43:26;;;;;;;2.77;2.53;;;14.60;97.50;;;;;;5077206;28;20418;-84
2021/12/05 16:46:03;;;;;;;10.53;9.53;;;14.70;97.50;;;;;;5044726;28;21025;-83
2021/12/05 16:48:28;;;;;;;7.60;6.60;;;14.70;97.80;;;;;;5061386;28;20437;-85
2021/12/05 16:50:54;;;;;;;4.80;4.37;;;14.50;98.00;;;;;;5080031;28;20451;-85
2021/12/05 16:53:31;;;;;;;4.77;3.63;;;14.50;98.10;;;;;;5064029;28;20195;-82
2021/12/05 16:56:00;;;;;;;3.30;3.00;;;14.50;98.30;;;;;;5079545;28;20188;-84
2021/12/05 16:58:26;;;;;;;3.47;2.90;;;14.40;98.30;;;;;;5080933;28;20466;-84
2021/12/05 17:00:53;;;;;;;3.83;2.73;;;14.30;98.60;;;;;;5064318;28;20408;-82
2021/12/05 17:03:26;;;;;;;3.00;2.70;;;14.30;98.60;;;;;;5063937;28;20233;-85
2021/12/05 17:05:55;;;;;;;3.60;3.30;;;14.40;98.60;;;;;;5063230;28;20451;-85
2021/12/05 17:08:27;;;;;;;3.63;3.10;;;14.40;98.70;;;;;;5074679;28;20418;-83
2021/12/05 17:11:03;;;;;;;4.00;3.20;;;14.60;98.70;;;;;;5060422;28;20420;-82
2021/12/05 17:13:50;;;;;;;5.63;3.63;;;14.60;98.60;;;;;;5055547;28;20404;-83
2021/12/05 17:16:21;;;;;;;4.23;3.70;;;14.60;98.40;;;;;;5075247;28;20439;-84
2021/12/05 17:18:53;;;;;;;3.23;2.93;;;14.70;98.30;;;;;;5060016;28;20919;-84
2021/12/05 17:21:26;;;;;;;3.53;3.23;;;14.80;98.30;;;;;;5075711;28;20503;-85
2021/12/05 17:23:59;;;;;;;3.60;3.30;;;14.90;98.00;;;;;;5051982;28;20494;-83
2021/12/05 17:26:34;;;;;;;3.23;2.80;;;15.10;97.90;;;;;;5062198;28;20468;-83
2021/12/05 17:29:25;;;;;;;4.80;3.10;;;15.10;97.70;;;;;;5072794;28;20427;-83
2021/12/05 17:31:58;;;;;;;4.87;3.43;;;15.10;97.60;;;;;;5074348;28;20451;-83
2021/12/05 17:34:28;;;;;;;3.90;3.57;;;15.00;97.50;;;;;;5076473;28;20438;-84
2021/12/05 17:37:00;;;;;;;4.63;3.90;;;15.10;97.70;;;;;;5069615;28;20448;-85
2021/12/05 17:39:31;;;;;;;4.10;3.70;;;15.10;97.50;;;;;;5053247;28;20420;-85
2021/12/05 17:42:02;;;;;;;7.00;4.60;;;15.10;97.60;;;;;;5059111;28;20815;-84
2021/12/05 17:44:28;;;;;;;5.60;4.10;;;15.10;97.60;;;;;;5055339;28;20472;-85
2021/12/05 17:46:57;;;;;;;5.07;3.97;;;15.20;97.50;;;;;;5056216;28;20440;-84
2021/12/05 17:49:25;;;;;;;5.10;4.43;;;15.10;97.50;;;;;;5043097;28;20411;-85
2021/12/05 17:51:51;;;;;;;5.60;5.00;;;15.00;97.60;;;;;;5055383;28;20425;-85
2021/12/05 17:55:01;;;;;;;6.20;5.17;;;15.00;97.70;;;;;;5059379;28;20930;-84
2021/12/05 17:57:17;;;;;;;5.90;5.30;;;14.90;97.80;;;;;;5057889;28;20981;-85
2021/12/05 18:00:02;;;;;;;22.73;20.30;;;14.80;98.10;;;;;;5053496;28;21121;-85
2021/12/05 18:02:45;;;;;;;6.20;5.60;;;14.70;98.30;;;;;;5039777;28;20439;-85
2021/12/05 18:05:19;;;;;;;6.07;5.47;;;14.40;98.50;;;;;;5075366;28;20447;-85
2021/12/05 18:07:47;;;;;;;5.30;4.80;;;14.30;98.80;;;;;;5031955;28;20480;-85
2021/12/05 18:10:15;;;;;;;6.93;5.13;;;14.10;99.00;;;;;;5028725;28;20412;-86
2021/12/05 18:12:42;;;;;;;6.27;4.93;;;14.00;99.40;;;;;;5070716;28;20776;-84
2021/12/05 18:15:15;;;;;;;5.30;4.90;;;13.90;99.50;;;;;;5028082;28;20424;-85
2021/12/05 18:17:41;;;;;;;4.50;4.10;;;13.80;99.70;;;;;;5040362;28;20444;-86
2021/12/05 18:20:11;;;;;;;5.47;4.97;;;13.60;99.90;;;;;;5007092;28;20420;-84
2021/12/05 18:22:37;;;;;;;5.70;4.40;;;13.50;99.90;;;;;;5031589;28;20181;-84
2021/12/05 18:25:04;;;;;;;5.30;4.23;;;13.50;99.90;;;;;;5060453;28;20447;-86
2021/12/05 18:27:30;;;;;;;5.47;4.87;;;13.50;99.90;;;;;;5061633;28;20477;-84
2021/12/05 18:29:57;;;;;;;4.83;4.40;;;13.50;99.90;;;;;;5061899;28;20447;-84
2021/12/05 18:32:23;;;;;;;5.87;5.37;;;13.70;99.90;;;;;;5024135;28;20462;-80
2021/12/05 18:34:48;;;;;;;5.60;4.70;;;13.60;99.90;;;;;;5059457;28;20416;-81
2021/12/05 18:37:14;;;;;;;8.70;5.90;;;13.60;99.90;;;;;;5041708;28;20210;-83
2021/12/05 18:39:45;;;;;;;4.87;4.40;;;13.80;99.90;;;;;;5004443;28;20412;-83
2021/12/05 18:42:13;;;;;;;7.37;5.17;;;13.80;99.90;;;;;;5053769;28;20404;-80
2021/12/05 18:44:44;;;;;;;5.57;4.93;;;13.80;99.90;;;;;;5037444;28;20459;-83
2021/12/05 18:47:10;;;;;;;5.57;5.07;;;13.90;99.90;;;;;;5054786;28;20428;-82
2021/12/05 18:49:38;;;;;;;5.73;5.13;;;13.80;99.90;;;;;;5049445;28;20422;-82
2021/12/05 18:52:05;;;;;;;5.30;4.80;;;14.00;99.80;;;;;;5041632;28;20806;-83
2021/12/05 18:54:35;;;;;;;5.67;5.13;;;14.00;99.70;;;;;;5037831;28;20840;-81
2021/12/05 18:57:01;;;;;;;5.83;5.23;;;14.10;99.60;;;;;;5073230;28;20474;-81